Time;durP1;ratioP1;P1;durP2;ratioP2;P2;SDS_P1;SDS_P2;PMS_P1;PMS_P2;Temp;Humidity;BMP_temperature;BMP_pressure;BME280_temperature;BME280_humidity;BME280_pressure;Samples;Min_cycle;Max_cycle;Signal;HPM_P1;HPM_P2
2023/05/19 00:00:17;;;;;;;13.07;3.10;;;11.80;90.30;;;;;;5059036;28;20036;-87
2023/05/19 00:02:43;;;;;;;12.30;3.33;;;11.80;90.40;;;;;;5048624;28;20127;-87
2023/05/19 00:05:17;;;;;;;13.40;3.35;;;11.80;90.50;;;;;;5041510;28;20125;-87
2023/05/19 00:07:44;;;;;;;8.02;3.47;;;11.70;90.60;;;;;;5045625;28;20067;-87
2023/05/19 00:10:13;;;;;;;9.52;3.30;;;11.70;90.80;;;;;;5042424;28;20078;-87
2023/05/19 00:12:38;;;;;;;6.45;3.17;;;11.70;90.70;;;;;;5045622;28;20090;-86
2023/05/19 00:15:05;;;;;;;11.85;3.85;;;11.70;90.70;;;;;;5039751;28;20464;-88
2023/05/19 00:17:33;;;;;;;7.50;3.70;;;11.70;90.80;;;;;;5046390;28;20037;-85
2023/05/19 00:19:58;;;;;;;8.77;3.58;;;11.60;91.10;;;;;;5046147;28;20035;-87
2023/05/19 00:22:26;;;;;;;9.98;3.20;;;11.50;91.30;;;;;;5048301;28;20024;-89
2023/05/19 00:24:52;;;;;;;13.57;3.72;;;11.50;91.30;;;;;;5066291;28;20009;-85
2023/05/19 00:27:20;;;;;;;6.25;3.40;;;11.50;91.40;;;;;;5069149;28;20227;-87
2023/05/19 00:29:46;;;;;;;18.73;4.03;;;11.50;91.50;;;;;;5060851;28;20025;-88
2023/05/19 00:32:11;;;;;;;9.57;3.40;;;11.50;91.70;;;;;;5051782;28;20443;-89
2023/05/19 00:34:37;;;;;;;6.53;3.15;;;11.50;91.80;;;;;;5046701;28;20048;-87
2023/05/19 00:37:03;;;;;;;7.07;3.25;;;11.40;92.00;;;;;;5062407;28;20506;-89
2023/05/19 00:39:28;;;;;;;11.07;3.53;;;11.40;92.00;;;;;;5060274;28;20031;-86
2023/05/19 00:41:54;;;;;;;8.38;3.00;;;11.40;92.10;;;;;;5049382;28;20127;-87
2023/05/19 00:44:20;;;;;;;9.27;3.60;;;11.40;92.20;;;;;;5062267;28;20017;-85
2023/05/19 00:46:45;;;;;;;9.32;3.45;;;11.30;92.30;;;;;;5058815;28;20042;-88
2023/05/19 00:49:11;;;;;;;9.80;3.58;;;11.30;92.40;;;;;;5064449;28;20017;-88
2023/05/19 00:51:37;;;;;;;12.55;3.50;;;11.30;92.60;;;;;;5043939;28;20017;-87
2023/05/19 00:54:03;;;;;;;10.50;4.03;;;11.20;92.50;;;;;;5063541;28;20101;-85
2023/05/19 00:56:29;;;;;;;9.98;3.53;;;11.20;92.70;;;;;;5071681;28;20031;-85
2023/05/19 00:58:56;;;;;;;5.70;3.58;;;11.20;92.70;;;;;;5082350;28;20034;-86
2023/05/19 01:01:21;;;;;;;10.65;3.70;;;11.20;92.80;;;;;;5059682;28;20033;-88
2023/05/19 01:03:48;;;;;;;9.52;3.75;;;11.20;92.70;;;;;;5038074;28;20024;-88
2023/05/19 01:06:13;;;;;;;10.45;4.18;;;11.10;92.90;;;;;;5038673;28;20033;-89
2023/05/19 01:08:39;;;;;;;9.55;3.65;;;11.10;93.00;;;;;;5039745;28;20189;-84
2023/05/19 01:11:06;;;;;;;14.18;4.03;;;11.00;93.30;;;;;;5045629;28;20063;-88
2023/05/19 01:13:33;;;;;;;7.85;3.88;;;11.10;93.30;;;;;;5057785;28;20112;-89
2023/05/19 01:16:07;;;;;;;11.52;3.83;;;11.00;93.40;;;;;;5038275;28;20372;-89
2023/05/19 01:18:43;;;;;;;8.52;3.55;;;11.00;93.70;;;;;;5046155;28;20146;-88
2023/05/19 01:21:21;;;;;;;15.30;4.85;;;11.00;93.80;;;;;;5058314;28;20032;-87
2023/05/19 01:24:02;;;;;;;13.65;4.75;;;11.00;94.00;;;;;;5073175;28;20017;-84
2023/05/19 01:27:17;;;;;;;8.80;4.40;;;11.00;94.30;;;;;;5053440;28;20078;-85
2023/05/19 01:29:54;;;;;;;7.10;3.83;;;10.90;94.50;;;;;;5038906;28;20049;-85
2023/05/19 01:32:22;;;;;;;7.72;3.95;;;10.90;94.60;;;;;;5053499;28;20495;-89
2023/05/19 01:34:52;;;;;;;7.70;4.53;;;10.80;94.30;;;;;;5053943;28;20024;-89
2023/05/19 01:37:20;;;;;;;13.85;5.45;;;10.80;94.70;;;;;;5036248;28;20560;-88
2023/05/19 01:39:47;;;;;;;11.52;4.93;;;10.70;95.00;;;;;;5045265;28;20059;-88
2023/05/19 01:42:13;;;;;;;11.02;4.53;;;10.70;94.80;;;;;;5039894;28;20442;-86
2023/05/19 01:44:39;;;;;;;17.50;4.93;;;10.70;95.00;;;;;;5036896;28;20016;-88
2023/05/19 01:47:06;;;;;;;10.65;3.92;;;10.70;95.70;;;;;;5033661;28;20021;-88
2023/05/19 01:49:31;;;;;;;14.88;4.65;;;10.60;95.60;;;;;;5054820;28;20017;-89
2023/05/19 01:51:57;;;;;;;8.90;4.20;;;10.60;96.50;;;;;;5044642;28;20121;-87
2023/05/19 01:54:22;;;;;;;8.40;4.53;;;10.60;96.40;;;;;;5044647;28;20032;-85
2023/05/19 01:56:54;;;;;;;12.93;4.72;;;10.60;96.60;;;;;;5055592;28;20108;-86
2023/05/19 01:59:40;;;;;;;13.02;5.00;;;10.60;96.90;;;;;;5053265;28;20021;-87
2023/05/19 02:02:22;;;;;;;8.07;4.80;;;10.60;97.00;;;;;;5045463;28;20040;-87
2023/05/19 02:04:58;;;;;;;10.65;4.78;;;10.50;97.50;;;;;;5037282;28;20026;-88
2023/05/19 02:07:47;;;;;;;9.07;4.82;;;10.50;97.80;;;;;;5035109;28;20025;-87
2023/05/19 02:10:26;;;;;;;16.08;5.22;;;10.50;98.00;;;;;;5057460;28;20024;-88
2023/05/19 02:12:57;;;;;;;10.43;4.85;;;10.50;98.30;;;;;;5060682;28;20021;-88
2023/05/19 02:15:32;;;;;;;6.30;4.47;;;10.50;98.60;;;;;;5044095;28;20021;-88
2023/05/19 02:17:59;;;;;;;17.08;5.32;;;10.50;99.10;;;;;;5041646;28;20036;-87
2023/05/19 02:20:24;;;;;;;9.07;4.75;;;10.40;99.40;;;;;;5038415;28;20027;-88
2023/05/19 02:22:50;;;;;;;11.43;5.18;;;10.40;99.90;;;;;;5034457;28;20543;-89
2023/05/19 02:25:16;;;;;;;11.50;5.13;;;10.30;99.90;;;;;;5035784;28;20037;-88
2023/05/19 02:27:41;;;;;;;8.85;5.78;;;10.30;99.90;;;;;;5053967;28;20029;-87
2023/05/19 02:30:08;;;;;;;11.50;4.63;;;10.30;99.90;;;;;;5043408;28;20021;-89
2023/05/19 02:32:35;;;;;;;8.15;4.68;;;10.30;99.90;;;;;;5055360;28;20063;-90
2023/05/19 02:35:01;;;;;;;12.60;5.45;;;10.20;99.90;;;;;;5037792;28;20017;-88
2023/05/19 02:37:29;;;;;;;12.45;5.00;;;10.20;99.90;;;;;;5039955;28;20123;-86
2023/05/19 02:39:55;;;;;;;12.85;5.43;;;10.20;99.90;;;;;;5036893;28;20027;-87
2023/05/19 02:42:21;;;;;;;18.77;5.97;;;10.20;99.90;;;;;;5051085;28;20017;-86
2023/05/19 02:44:47;;;;;;;11.32;5.57;;;10.10;99.90;;;;;;5055230;28;20036;-87
2023/05/19 02:47:13;;;;;;;14.05;5.82;;;10.10;99.90;;;;;;5076457;28;20048;-84
2023/05/19 02:49:39;;;;;;;7.05;5.20;;;10.10;99.90;;;;;;5068551;28;20028;-85
2023/05/19 02:52:05;;;;;;;9.98;4.75;;;10.10;99.90;;;;;;5056662;28;20131;-87
2023/05/19 02:54:32;;;;;;;11.50;5.55;;;10.00;99.90;;;;;;5057893;28;20028;-89
2023/05/19 02:56:57;;;;;;;12.27;5.22;;;10.00;99.90;;;;;;5037500;28;20037;-88
2023/05/19 02:59:23;;;;;;;7.78;5.35;;;10.00;99.90;;;;;;5037790;28;20051;-91
2023/05/19 03:01:50;;;;;;;7.63;5.70;;;9.90;99.90;;;;;;5048065;28;20116;-87
2023/05/19 03:04:18;;;;;;;12.63;5.60;;;9.90;99.90;;;;;;5068782;28;20012;-84
2023/05/19 03:06:45;;;;;;;13.73;5.82;;;9.80;99.90;;;;;;5082344;28;20020;-89
2023/05/19 03:09:12;;;;;;;13.93;5.63;;;9.80;99.90;;;;;;5060302;28;20044;-86
2023/05/19 03:11:40;;;;;;;12.30;5.70;;;9.70;99.90;;;;;;5054410;28;20029;-86
2023/05/19 03:14:08;;;;;;;12.30;5.55;;;9.80;99.90;;;;;;5044489;28;20679;-87
2023/05/19 03:16:34;;;;;;;15.45;6.13;;;9.70;99.90;;;;;;5060793;28;20099;-88
2023/05/19 03:19:02;;;;;;;13.23;5.25;;;9.70;99.90;;;;;;5034224;28;20148;-87
2023/05/19 03:21:29;;;;;;;14.50;6.18;;;9.70;99.90;;;;;;5041807;28;20161;-86
2023/05/19 03:23:54;;;;;;;11.60;5.95;;;9.60;99.90;;;;;;5038799;28;20024;-87
2023/05/19 03:26:23;;;;;;;18.85;6.68;;;9.60;99.90;;;;;;5040203;28;20099;-87
2023/05/19 03:28:48;;;;;;;11.52;5.32;;;9.70;99.90;;;;;;5038247;28;20025;-88
2023/05/19 03:31:15;;;;;;;12.57;6.25;;;9.70;99.90;;;;;;5056533;28;20092;-87
2023/05/19 03:33:40;;;;;;;13.30;6.35;;;9.70;99.90;;;;;;5037266;28;20029;-86
2023/05/19 03:36:06;;;;;;;14.93;5.60;;;9.60;99.90;;;;;;5053271;28;20472;-87
2023/05/19 03:38:32;;;;;;;12.50;6.72;;;9.60;99.90;;;;;;5061362;28;20514;-87
2023/05/19 03:40:57;;;;;;;13.60;6.10;;;9.60;99.90;;;;;;5046786;28;20024;-87
2023/05/19 03:43:23;;;;;;;12.30;6.45;;;9.60;99.90;;;;;;5043829;28;20090;-88
2023/05/19 03:45:51;;;;;;;12.80;6.15;;;9.60;99.90;;;;;;5057496;28;20064;-87
2023/05/19 03:48:17;;;;;;;18.98;7.47;;;9.70;99.90;;;;;;5040864;28;20055;-88
2023/05/19 03:50:43;;;;;;;16.80;6.35;;;9.70;99.90;;;;;;5040858;28;20053;-87
2023/05/19 03:53:11;;;;;;;11.02;6.13;;;9.70;99.90;;;;;;5042757;28;20028;-86
2023/05/19 03:55:36;;;;;;;13.95;6.00;;;9.70;99.90;;;;;;5050151;28;20025;-84
2023/05/19 03:58:02;;;;;;;12.93;6.28;;;9.80;99.90;;;;;;5059937;28;20349;-88
2023/05/19 04:00:28;;;;;;;17.77;6.65;;;9.80;99.90;;;;;;5037849;28;20028;-87
2023/05/19 04:02:53;;;;;;;11.85;6.03;;;9.80;99.90;;;;;;5037911;28;20013;-87
2023/05/19 04:05:21;;;;;;;13.82;6.07;;;9.80;99.90;;;;;;5039412;28;20021;-86
2023/05/19 04:07:47;;;;;;;14.02;6.25;;;9.80;99.90;;;;;;5058087;28;20021;-85
2023/05/19 04:10:13;;;;;;;18.58;6.63;;;9.90;99.90;;;;;;5040326;28;20017;-89
2023/05/19 04:12:38;;;;;;;16.48;6.38;;;9.90;99.90;;;;;;5038888;28;20123;-87
2023/05/19 04:15:05;;;;;;;16.13;6.88;;;10.00;99.90;;;;;;5044864;28;20024;-85
2023/05/19 04:17:31;;;;;;;16.00;6.47;;;10.00;99.90;;;;;;5038831;28;20059;-86
2023/05/19 04:19:56;;;;;;;13.95;6.35;;;10.00;99.90;;;;;;5058172;28;20023;-87
2023/05/19 04:22:22;;;;;;;12.13;6.85;;;10.00;99.90;;;;;;5041167;28;20421;-86
2023/05/19 04:24:49;;;;;;;14.15;7.18;;;10.10;99.90;;;;;;5055647;28;20136;-87
2023/05/19 04:27:16;;;;;;;12.50;6.78;;;10.20;99.90;;;;;;5055479;28;20017;-87
2023/05/19 04:29:42;;;;;;;14.20;6.72;;;10.20;99.90;;;;;;5038737;28;20104;-86
2023/05/19 04:32:09;;;;;;;19.08;6.68;;;10.20;99.90;;;;;;5039699;28;20124;-87
2023/05/19 04:34:45;;;;;;;14.35;7.03;;;10.30;99.90;;;;;;5038462;28;22019;-88
2023/05/19 04:37:18;;;;;;;15.23;6.53;;;10.30;99.90;;;;;;5060155;28;20097;-83
2023/05/19 04:39:45;;;;;;;9.63;5.70;;;10.40;99.90;;;;;;5077910;28;20025;-85
2023/05/19 04:42:11;;;;;;;12.48;6.60;;;10.40;99.90;;;;;;5060529;28;20078;-84
2023/05/19 04:44:40;;;;;;;14.48;7.00;;;10.40;99.90;;;;;;5042947;28;20032;-87
2023/05/19 04:47:10;;;;;;;12.13;6.25;;;10.50;99.90;;;;;;5055975;28;20322;-87
2023/05/19 04:49:39;;;;;;;14.35;6.57;;;10.60;99.90;;;;;;5055636;28;20024;-87
2023/05/19 04:52:09;;;;;;;14.20;6.60;;;10.60;99.90;;;;;;5036457;28;20024;-86
2023/05/19 04:54:38;;;;;;;11.77;6.20;;;10.70;99.90;;;;;;5039629;28;20024;-87
2023/05/19 04:57:04;;;;;;;9.07;5.90;;;10.70;99.90;;;;;;5044493;28;20039;-85
2023/05/19 04:59:32;;;;;;;14.75;6.50;;;10.80;99.90;;;;;;5038448;28;20029;-87
2023/05/19 05:02:00;;;;;;;14.82;6.60;;;10.90;99.90;;;;;;5056803;28;20123;-87
2023/05/19 05:04:28;;;;;;;15.73;7.20;;;10.90;99.90;;;;;;5070640;28;20580;-84
2023/05/19 05:06:54;;;;;;;16.13;6.97;;;11.00;99.90;;;;;;5057643;28;20036;-86
2023/05/19 05:09:20;;;;;;;15.95;7.20;;;11.00;99.90;;;;;;5047896;28;20036;-89
2023/05/19 05:11:46;;;;;;;15.88;6.63;;;11.20;99.90;;;;;;5043395;28;20016;-89
2023/05/19 05:14:12;;;;;;;17.52;6.22;;;11.20;99.90;;;;;;5037767;28;20056;-86
2023/05/19 05:16:40;;;;;;;12.02;6.20;;;11.30;99.90;;;;;;5034968;28;20037;-85
2023/05/19 05:19:06;;;;;;;11.50;6.88;;;11.40;99.90;;;;;;5037376;28;20021;-86
2023/05/19 05:21:32;;;;;;;13.10;5.93;;;11.50;99.90;;;;;;5037051;28;20116;-88
2023/05/19 05:23:58;;;;;;;13.38;6.10;;;11.50;99.90;;;;;;5040287;28;20027;-85
2023/05/19 05:26:32;;;;;;;14.20;6.20;;;11.60;99.90;;;;;;5038478;28;20744;-85
2023/05/19 05:28:59;;;;;;;14.68;6.43;;;11.70;99.90;;;;;;5071486;28;20017;-86
2023/05/19 05:31:25;;;;;;;13.27;6.47;;;11.80;99.90;;;;;;5041057;28;20039;-86
2023/05/19 05:33:51;;;;;;;11.20;6.38;;;11.80;99.90;;;;;;5040169;28;20530;-86
2023/05/19 05:36:17;;;;;;;11.65;6.22;;;11.80;99.90;;;;;;5054660;28;20033;-86
2023/05/19 05:38:42;;;;;;;12.57;5.90;;;11.90;99.90;;;;;;5050000;28;20069;-83
2023/05/19 05:41:10;;;;;;;14.43;6.00;;;11.90;99.90;;;;;;5050576;28;20032;-85
2023/05/19 05:43:38;;;;;;;13.55;6.13;;;12.00;99.90;;;;;;5057704;28;20036;-85
2023/05/19 05:46:04;;;;;;;9.55;6.10;;;12.10;99.90;;;;;;5051469;28;20092;-86
2023/05/19 05:48:32;;;;;;;8.45;5.30;;;12.20;99.90;;;;;;5042664;28;20055;-85
2023/05/19 05:50:58;;;;;;;10.52;5.43;;;12.30;99.90;;;;;;5045836;28;20029;-88
2023/05/19 05:53:29;;;;;;;8.85;5.18;;;12.40;99.90;;;;;;5042679;28;20035;-87
2023/05/19 05:55:54;;;;;;;9.13;5.40;;;12.50;99.90;;;;;;5043043;28;20116;-87
2023/05/19 05:58:20;;;;;;;12.35;4.90;;;12.60;99.90;;;;;;5039294;28;20099;-84
2023/05/19 06:00:50;;;;;;;17.73;5.60;;;12.70;99.90;;;;;;5040777;28;20678;-87
2023/05/19 06:03:15;;;;;;;9.63;5.22;;;12.80;99.90;;;;;;5051443;28;20028;-88
2023/05/19 06:05:41;;;;;;;11.48;4.90;;;13.00;99.90;;;;;;5049489;28;20085;-88
2023/05/19 06:08:07;;;;;;;9.82;4.97;;;13.10;99.90;;;;;;5040166;28;20126;-85
2023/05/19 06:10:34;;;;;;;12.05;5.00;;;13.30;99.90;;;;;;5042141;28;20029;-86
2023/05/19 06:13:00;;;;;;;11.38;4.75;;;13.30;99.90;;;;;;5035639;28;20028;-88
2023/05/19 06:15:25;;;;;;;11.57;4.43;;;13.40;99.90;;;;;;5065670;28;20025;-87
2023/05/19 06:17:51;;;;;;;8.82;4.82;;;13.60;99.90;;;;;;5057500;28;20124;-82
2023/05/19 06:20:17;;;;;;;16.92;6.10;;;13.60;99.90;;;;;;5039270;28;20532;-90
2023/05/19 06:22:43;;;;;;;10.07;4.50;;;13.80;99.90;;;;;;5058282;28;20028;-87
2023/05/19 06:25:08;;;;;;;10.88;5.45;;;13.80;99.90;;;;;;5047693;28;20025;-90
2023/05/19 06:27:34;;;;;;;15.48;5.68;;;13.90;99.90;;;;;;5041013;28;20086;-85
2023/05/19 06:30:00;;;;;;;14.18;6.68;;;14.00;99.90;;;;;;5043899;28;20059;-84
2023/05/19 06:32:26;;;;;;;15.25;4.20;;;14.10;99.90;;;;;;5042000;28;20055;-87
2023/05/19 06:34:54;;;;;;;8.18;4.25;;;14.20;99.90;;;;;;5059183;28;20028;-87
2023/05/19 06:37:23;;;;;;;8.10;3.45;;;14.40;99.90;;;;;;5037172;28;20036;-87
2023/05/19 06:39:52;;;;;;;9.40;3.83;;;14.50;99.90;;;;;;5045029;28;20039;-86
2023/05/19 06:42:21;;;;;;;11.48;4.63;;;14.60;99.90;;;;;;5058353;28;20051;-86
2023/05/19 06:44:48;;;;;;;14.10;3.78;;;14.70;99.90;;;;;;5044429;28;20035;-84
2023/05/19 06:47:15;;;;;;;10.70;3.92;;;14.70;99.90;;;;;;5038963;28;20109;-84
2023/05/19 06:49:43;;;;;;;7.70;4.07;;;14.80;99.70;;;;;;5039494;28;20039;-84
2023/05/19 06:52:08;;;;;;;4.68;3.42;;;14.90;99.60;;;;;;5037947;28;20131;-83
2023/05/19 06:54:34;;;;;;;15.20;7.65;;;15.00;99.40;;;;;;5057728;28;20491;-85
2023/05/19 06:57:00;;;;;;;11.23;4.20;;;15.10;99.20;;;;;;5035618;28;20399;-84
2023/05/19 06:59:25;;;;;;;10.93;3.88;;;15.10;99.40;;;;;;5046301;28;20051;-85
2023/05/19 07:01:51;;;;;;;14.48;4.10;;;15.20;98.70;;;;;;5055022;28;20212;-84
2023/05/19 07:04:17;;;;;;;15.35;4.15;;;15.30;98.60;;;;;;5039899;28;20035;-84
2023/05/19 07:06:42;;;;;;;13.57;3.80;;;15.30;98.50;;;;;;5057445;28;20028;-85
2023/05/19 07:09:10;;;;;;;7.82;3.63;;;15.40;98.30;;;;;;5059549;28;20021;-83
2023/05/19 07:11:38;;;;;;;9.05;3.38;;;15.50;98.00;;;;;;5055304;28;20032;-85
2023/05/19 07:14:03;;;;;;;9.43;3.55;;;15.70;97.70;;;;;;5039013;28;20024;-85
2023/05/19 07:16:29;;;;;;;8.25;3.17;;;15.80;97.60;;;;;;5053435;28;20033;-85
2023/05/19 07:18:55;;;;;;;9.88;3.40;;;15.90;96.80;;;;;;5034887;28;20036;-84
2023/05/19 07:21:20;;;;;;;6.25;2.47;;;16.00;96.80;;;;;;5063327;28;20021;-84
2023/05/19 07:23:46;;;;;;;9.18;3.58;;;16.10;96.50;;;;;;5065880;28;20044;-84
2023/05/19 07:26:11;;;;;;;9.27;3.17;;;16.20;95.80;;;;;;5062759;28;20575;-85
2023/05/19 07:28:37;;;;;;;14.98;5.50;;;16.40;95.40;;;;;;5059265;28;20080;-83
2023/05/19 07:31:03;;;;;;;13.63;3.05;;;16.50;94.70;;;;;;5057813;28;20040;-81
2023/05/19 07:33:31;;;;;;;11.52;2.50;;;16.60;94.60;;;;;;5057740;28;20032;-84
2023/05/19 07:35:57;;;;;;;4.43;2.17;;;16.80;93.70;;;;;;5060493;28;20067;-85
2023/05/19 07:38:22;;;;;;;3.83;2.03;;;16.80;93.40;;;;;;5042056;28;20508;-86
2023/05/19 07:40:48;;;;;;;6.63;2.30;;;16.90;93.30;;;;;;5042417;28;20021;-85
2023/05/19 07:43:13;;;;;;;9.07;2.35;;;17.10;92.70;;;;;;5062261;28;20100;-84
2023/05/19 07:45:39;;;;;;;10.40;2.42;;;17.10;91.90;;;;;;5076199;28;20047;-83
2023/05/19 07:48:05;;;;;;;8.95;2.03;;;17.20;91.60;;;;;;5064165;28;20101;-84
2023/05/19 07:50:31;;;;;;;9.93;2.35;;;17.30;91.70;;;;;;5054366;28;20021;-85
2023/05/19 07:52:57;;;;;;;290.52;93.43;;;17.50;91.10;;;;;;5058652;28;20107;-84
2023/05/19 07:55:22;;;;;;;7.63;2.17;;;17.70;90.80;;;;;;5064113;28;20089;-85
2023/05/19 07:57:49;;;;;;;10.60;2.08;;;17.80;90.20;;;;;;5060416;28;20036;-85
2023/05/19 08:00:16;;;;;;;6.85;2.05;;;18.00;89.60;;;;;;5059684;28;20021;-87
2023/05/19 08:02:42;;;;;;;9.52;2.08;;;18.20;90.50;;;;;;5061774;28;20032;-88
2023/05/19 08:05:10;;;;;;;5.18;2.13;;;18.30;88.20;;;;;;5062562;28;20125;-89
2023/05/19 08:07:36;;;;;;;7.43;1.95;;;18.50;86.60;;;;;;5064656;28;20140;-92
2023/05/19 08:10:02;;;;;;;9.15;2.08;;;18.60;85.30;;;;;;5044053;28;20102;-90
2023/05/19 08:12:28;;;;;;;6.78;1.92;;;18.80;85.00;;;;;;5078622;28;20036;-87
2023/05/19 08:14:54;;;;;;;9.10;2.17;;;18.80;84.90;;;;;;5072726;28;20100;-81
2023/05/19 08:17:19;;;;;;;5.07;2.30;;;18.80;84.30;;;;;;5047760;28;20063;-83
2023/05/19 08:19:45;;;;;;;7.32;2.30;;;19.00;83.30;;;;;;5061782;28;20033;-82
2023/05/19 08:22:10;;;;;;;7.72;2.03;;;19.20;82.90;;;;;;5043503;28;20020;-83
2023/05/19 08:24:37;;;;;;;11.32;3.00;;;19.50;83.30;;;;;;5057821;28;20032;-82
2023/05/19 08:27:03;;;;;;;6.70;2.38;;;19.90;80.00;;;;;;5056187;28;20373;-82
2023/05/19 08:29:29;;;;;;;4.82;2.00;;;20.00;78.60;;;;;;5034616;28;20040;-80
2023/05/19 08:31:57;;;;;;;86.65;37.28;;;20.40;79.70;;;;;;5039943;28;20048;-88
2023/05/19 08:34:25;;;;;;;115.55;46.53;;;20.40;76.10;;;;;;5041946;28;20546;-91
2023/05/19 08:36:51;;;;;;;7.55;1.98;;;20.40;75.90;;;;;;5057708;28;20051;-82
2023/05/19 08:39:22;;;;;;;6.78;2.00;;;20.50;73.80;;;;;;5058079;28;20059;-81
2023/05/19 08:41:48;;;;;;;7.50;1.83;;;20.50;73.40;;;;;;5054887;28;20013;-81
2023/05/19 08:44:14;;;;;;;6.15;2.00;;;20.60;74.40;;;;;;5032679;28;20361;-81
2023/05/19 08:46:40;;;;;;;10.23;2.42;;;20.60;74.90;;;;;;5028656;28;20102;-81
2023/05/19 08:49:15;;;;;;;7.97;1.80;;;20.60;73.00;;;;;;5034615;28;20025;-81
2023/05/19 08:52:06;;;;;;;4.10;1.90;;;20.70;73.70;;;;;;5034970;28;20035;-82
2023/05/19 08:54:43;;;;;;;7.13;1.92;;;21.00;72.40;;;;;;5040201;28;20040;-83
2023/05/19 08:57:09;;;;;;;7.72;2.13;;;21.40;71.10;;;;;;5046470;28;20024;-85
2023/05/19 08:59:36;;;;;;;6.75;2.05;;;21.60;66.20;;;;;;5043619;28;20173;-83
2023/05/19 09:02:03;;;;;;;7.55;1.52;;;21.70;67.10;;;;;;5057741;28;20029;-85
2023/05/19 09:04:30;;;;;;;10.48;5.07;;;21.90;66.30;;;;;;5042795;28;20145;-89
2023/05/19 09:06:55;;;;;;;263.95;99.65;;;22.00;65.50;;;;;;5046499;28;20029;-84
2023/05/19 09:09:21;;;;;;;7.03;1.52;;;22.30;64.60;;;;;;5056409;28;20017;-84
2023/05/19 09:11:47;;;;;;;9.38;1.67;;;22.50;64.70;;;;;;5053406;28;20063;-84
2023/05/19 09:14:13;;;;;;;3.90;1.90;;;22.40;64.00;;;;;;5045874;28;20028;-85
2023/05/19 09:16:39;;;;;;;14.38;2.50;;;22.10;63.00;;;;;;5041698;28;20070;-85
2023/05/19 09:19:12;;;;;;;5.68;1.70;;;22.10;64.60;;;;;;5041205;28;20020;-85
2023/05/19 09:21:37;;;;;;;5.82;1.80;;;22.10;62.30;;;;;;5042853;28;20079;-84
2023/05/19 09:24:08;;;;;;;10.45;2.00;;;22.20;62.70;;;;;;5046344;28;20024;-85
2023/05/19 09:26:39;;;;;;;8.38;1.83;;;21.90;62.20;;;;;;5042484;28;20025;-83
2023/05/19 09:29:17;;;;;;;4.57;1.67;;;21.60;61.70;;;;;;5035805;28;20108;-84
2023/05/19 09:31:54;;;;;;;8.07;1.75;;;21.70;61.50;;;;;;5053808;28;20032;-82
2023/05/19 09:34:23;;;;;;;5.43;1.80;;;22.10;61.50;;;;;;5036572;28;20131;-81
2023/05/19 09:36:49;;;;;;;6.45;1.67;;;22.30;61.60;;;;;;5042846;28;20773;-83
2023/05/19 09:39:15;;;;;;;6.43;1.88;;;22.40;60.00;;;;;;5043835;28;20036;-83
2023/05/19 09:41:42;;;;;;;8.13;2.00;;;22.50;60.00;;;;;;5036697;28;20031;-86
2023/05/19 09:44:12;;;;;;;6.78;1.90;;;22.40;59.20;;;;;;5039568;28;20023;-80
2023/05/19 09:46:47;;;;;;;6.97;2.28;;;22.50;61.00;;;;;;5034727;28;20152;-85
2023/05/19 09:49:13;;;;;;;8.18;1.80;;;22.70;58.80;;;;;;5059113;28;20481;-84
2023/05/19 09:51:40;;;;;;;7.70;2.00;;;22.90;58.70;;;;;;5057028;28;20048;-85
2023/05/19 09:54:08;;;;;;;12.27;4.18;;;22.90;60.90;;;;;;5060509;28;20884;-91
2023/05/19 09:56:35;;;;;;;9.68;2.40;;;23.10;58.40;;;;;;5061055;28;20054;-89
2023/05/19 09:59:02;;;;;;;9.43;1.77;;;23.20;58.40;;;;;;5058539;28;20043;-88
2023/05/19 10:01:30;;;;;;;5.55;1.75;;;23.50;56.90;;;;;;5066928;28;20013;-82
2023/05/19 10:03:57;;;;;;;7.68;2.10;;;23.90;58.30;;;;;;5068680;28;20020;-87
2023/05/19 10:06:24;;;;;;;5.22;2.03;;;24.10;57.00;;;;;;5062014;28;20068;-84
2023/05/19 10:08:51;;;;;;;8.48;3.00;;;24.50;56.20;;;;;;5049041;28;20428;-87
2023/05/19 10:11:17;;;;;;;7.70;1.98;;;25.10;55.30;;;;;;5045601;28;20027;-81
2023/05/19 10:13:45;;;;;;;4.15;1.77;;;25.50;55.00;;;;;;5061634;28;20021;-82
2023/05/19 10:16:12;;;;;;;6.72;1.92;;;25.60;54.90;;;;;;5049569;28;20021;-84
2023/05/19 10:18:39;;;;;;;10.43;2.00;;;26.10;53.10;;;;;;5041004;28;20082;-82
2023/05/19 10:21:09;;;;;;;6.00;2.15;;;25.70;52.20;;;;;;5043788;28;20016;-82
2023/05/19 10:23:35;;;;;;;4.55;2.10;;;25.00;53.00;;;;;;5043830;28;20058;-79
2023/05/19 10:26:05;;;;;;;7.28;1.95;;;24.60;53.90;;;;;;5043997;28;20044;-83
2023/05/19 10:28:36;;;;;;;10.77;2.67;;;24.70;53.40;;;;;;5043498;28;20016;-83
2023/05/19 10:31:07;;;;;;;9.32;2.47;;;24.80;54.50;;;;;;5050460;28;20108;-82
2023/05/19 10:33:53;;;;;;;16.85;6.15;;;24.80;53.60;;;;;;5040637;28;20120;-81
2023/05/19 10:36:44;;;;;;;40.00;13.40;;;25.10;54.20;;;;;;5060158;28;20060;-81
2023/05/19 10:39:21;;;;;;;6.15;1.75;;;25.30;52.10;;;;;;5041778;28;20025;-82
2023/05/19 10:42:15;;;;;;;5.68;2.17;;;25.20;53.20;;;;;;5045803;28;20111;-86
2023/05/19 10:45:16;;;;;;;9.15;2.50;;;25.40;53.30;;;;;;5065748;28;20522;-84
2023/05/19 10:47:42;;;;;;;9.90;2.30;;;25.70;52.50;;;;;;5047473;28;20134;-85
2023/05/19 10:50:08;;;;;;;7.00;2.25;;;25.40;53.10;;;;;;5045043;28;20563;-85
2023/05/19 10:52:40;;;;;;;8.20;2.30;;;25.90;52.10;;;;;;5038054;28;20117;-93
2023/05/19 10:55:16;;;;;;;12.63;2.60;;;26.10;51.70;;;;;;5062684;28;20052;-95
2023/05/19 10:57:59;;;;;;;6.53;2.20;;;25.40;51.20;;;;;;5048603;28;20101;-92
2023/05/19 11:00:31;;;;;;;;;;;25.10;54.80;;;;;;5031040;28;20041;-96
2023/05/19 11:03:22;;;;;;;4.80;1.95;;;25.40;54.60;;;;;;5049449;28;19905;-93
2023/05/19 11:05:51;;;;;;;9.43;2.00;;;25.10;52.30;;;;;;5052599;28;20032;-95
2023/05/19 11:08:32;;;;;;;6.40;2.22;;;25.00;53.10;;;;;;5047822;28;20021;-83
2023/05/19 11:11:15;;;;;;;8.70;2.45;;;24.70;51.90;;;;;;5042771;28;20126;-88
2023/05/19 11:13:47;;;;;;;164.70;88.25;;;24.70;52.10;;;;;;5048504;28;20025;-87
2023/05/19 11:16:13;;;;;;;109.25;47.30;;;24.50;51.80;;;;;;5045691;28;20079;-87
2023/05/19 11:18:39;;;;;;;14.07;3.55;;;24.70;53.30;;;;;;5050019;28;20032;-88
2023/05/19 11:21:05;;;;;;;5.28;2.15;;;25.20;52.00;;;;;;5059986;28;20024;-84
2023/05/19 11:23:38;;;;;;;32.72;12.75;;;25.30;53.00;;;;;;5047793;28;20120;-89
2023/05/19 11:26:05;;;;;;;;;;;25.50;52.10;;;;;;5059932;28;20040;-78
2023/05/19 11:28:32;;;;;;;6.22;2.60;;;25.40;51.40;;;;;;5060564;28;19967;-78
2023/05/19 11:30:58;;;;;;;7.55;2.30;;;25.50;50.80;;;;;;5043430;28;20016;-79
2023/05/19 11:33:27;;;;;;;10.30;2.50;;;25.70;50.50;;;;;;5062688;28;20020;-91
2023/05/19 11:35:58;;;;;;;5.18;2.20;;;26.00;50.10;;;;;;5044456;28;20061;-88
2023/05/19 11:38:24;;;;;;;4.55;1.98;;;26.20;50.70;;;;;;5050393;28;20440;-88
2023/05/19 11:40:54;;;;;;;7.57;2.58;;;26.40;49.90;;;;;;5051869;28;20107;-95
2023/05/19 11:43:22;;;;;;;9.80;3.40;;;26.70;50.20;;;;;;5046523;28;20041;-88
2023/05/19 11:48:23;;;;;;;13.82;2.63;;;26.40;50.10;;;;;;5089318;28;20389;-94
2023/05/19 11:50:52;;;;;;;4.15;2.10;;;26.40;50.20;;;;;;5069816;28;20029;-96
2023/05/19 11:53:27;;;;;;;8.25;2.28;;;26.10;50.20;;;;;;5054272;28;20041;-96
2023/05/19 11:55:53;;;;;;;6.50;1.88;;;25.50;50.40;;;;;;5034050;28;20120;-96
2023/05/19 11:58:27;;;;;;;8.75;2.50;;;25.30;51.10;;;;;;5012989;28;20061;-96
2023/05/19 12:00:53;;;;;;;7.35;3.03;;;25.50;50.30;;;;;;5024907;28;20381;-95
2023/05/19 12:03:26;;;;;;;5.47;2.28;;;25.70;51.10;;;;;;5029215;28;20044;-96
2023/05/19 12:05:53;;;;;;;6.88;2.40;;;25.90;50.70;;;;;;5031265;28;20018;-92
2023/05/19 12:08:18;;;;;;;13.43;2.83;;;26.20;50.40;;;;;;5009845;28;20024;-92
2023/05/19 12:10:49;;;;;;;6.68;2.10;;;26.30;48.60;;;;;;5007439;28;20041;-95
2023/05/19 12:13:14;;;;;;;10.25;2.42;;;26.40;49.00;;;;;;5022716;28;20032;-94
2023/05/19 12:15:40;;;;;;;8.55;2.33;;;26.30;50.10;;;;;;5008995;28;20033;-95
2023/05/19 12:18:06;;;;;;;8.43;2.38;;;26.20;50.20;;;;;;5009039;28;20386;-94
2023/05/19 12:20:34;;;;;;;8.82;2.10;;;26.30;51.80;;;;;;5009982;28;20025;-96
2023/05/19 12:23:00;;;;;;;4.65;1.98;;;26.50;49.80;;;;;;5022432;28;20021;-93
2023/05/19 12:25:30;;;;;;;8.95;2.08;;;26.50;49.10;;;;;;5006907;28;20029;-91
2023/05/19 12:28:03;;;;;;;7.82;2.10;;;26.60;49.30;;;;;;5044782;28;20033;-96
2023/05/19 12:30:30;;;;;;;8.60;2.30;;;26.70;49.30;;;;;;5048662;28;20032;-93
2023/05/19 12:33:01;;;;;;;6.03;2.45;;;26.80;48.80;;;;;;5050587;28;20063;-96
2023/05/19 12:35:36;;;;;;;9.00;2.20;;;27.10;47.70;;;;;;5047455;28;20073;-94
2023/05/19 12:38:08;;;;;;;7.30;2.30;;;27.10;47.60;;;;;;5040109;28;20036;-94
2023/05/19 12:40:34;;;;;;;8.40;2.53;;;27.30;47.60;;;;;;5048966;28;20024;-93
2023/05/19 12:43:00;;;;;;;2.70;2.03;;;27.00;47.40;;;;;;5048631;28;20270;-95
2023/05/19 12:45:27;;;;;;;9.15;2.10;;;27.00;47.30;;;;;;5050297;28;20025;-95
2023/05/19 12:47:56;;;;;;;6.07;1.90;;;27.10;47.90;;;;;;5048357;28;20028;-93
2023/05/19 12:50:29;;;;;;;9.52;1.75;;;27.10;46.00;;;;;;5048405;28;20021;-95